Terminal Aerodrome Forecast
Issued by NWS

Home | Current Version | Previous Version | Text Only | Print | Product List | Glossary On
Versions: 1 2 3 4 5 6 7 8 9 10 11 12 13 14 15 16 17 18 19 20 21 22 23 24 25
000
FTAK31 PANC 221435 AAA
TAFAAQ
TAF AMD
PAAQ 221435Z 2215/2312 36005KT P6SM BKN060
      TEMPO 2215/2216 02005KT 4SM -SN BR OVC025
     FM221600 VRB03KT 2SM -SN OVC015
     FM221800 VRB04KT 1SM -SN OVC010
     FM222200 22006KT 6SM -SN SCT010 OVC025
     FM230300 35006KT P6SM VCSH SCT015 BKN045=

USA.gov is the U.S. government's official web portal to all federal, state and local government web resources and services.